Time,TemperatureF,DewpointF,PressureIn,WindDirection,WindDirectionDegrees,WindSpeedMPH,WindSpeedGustMPH,Humidity,HourlyPrecipIn,Conditions,Clouds,dailyrainin,SoftwareType,DateUTC
2013-08-28 00:10:00,74.7,73.0,29.76,NNE,23,0.0,-999.0,94,-99.99,,,0.00,weatherlink.com 1.10,2013-08-28 04:10:00,
2013-08-28 00:25:00,74.7,73.0,29.76,NNE,23,0.0,-999.0,95,-99.99,,,0.01,weatherlink.com 1.10,2013-08-28 04:25:00,
2013-08-28 00:40:00,74.5,73.0,29.76,NNE,23,0.0,-999.0,95,-99.99,,,0.01,weatherlink.com 1.10,2013-08-28 04:40:00,
2013-08-28 00:55:00,74.4,73.0,29.76,NNE,22,0.0,-999.0,96,-99.99,,,0.05,weatherlink.com 1.10,2013-08-28 04:55:00,
2013-08-28 01:10:00,74.9,74.0,29.75,West,275,5.0,-999.0,96,-99.99,,,0.19,weatherlink.com 1.10,2013-08-28 05:10:00,
2013-08-28 01:25:00,75.1,74.0,29.75,NW,323,0.0,-999.0,96,-99.99,,,0.19,weatherlink.com 1.10,2013-08-28 05:25:00,
2013-08-28 01:40:00,74.9,74.0,29.75,NW,323,0.0,-999.0,96,-99.99,,,0.19,weatherlink.com 1.10,2013-08-28 05:40:00,
2013-08-28 01:55:00,74.5,73.0,29.75,NW,323,0.0,-999.0,96,-99.99,,,0.19,weatherlink.com 1.10,2013-08-28 05:55:00,
2013-08-28 02:10:00,74.4,73.0,29.75,NW,323,0.0,-999.0,96,-99.99,,,0.19,weatherlink.com 1.10,2013-08-28 06:10:00,
2013-08-28 02:25:00,74.3,73.0,29.75,NW,323,0.0,-999.0,96,-99.99,,,0.19,weatherlink.com 1.10,2013-08-28 06:25:00,
2013-08-28 02:40:00,74.2,73.0,29.75,NW,323,0.0,-999.0,96,-99.99,,,0.19,weatherlink.com 1.10,2013-08-28 06:40:00,
2013-08-28 02:55:00,74.2,73.0,29.75,NW,323,0.0,-999.0,96,-99.99,,,0.19,weatherlink.com 1.10,2013-08-28 06:55:00,
2013-08-28 03:10:00,74.2,73.0,29.76,NW,323,0.0,-999.0,96,-99.99,,,0.19,weatherlink.com 1.10,2013-08-28 07:10:00,
2013-08-28 03:25:00,74.2,73.0,29.76,NW,323,0.0,-999.0,97,-99.99,,,0.19,weatherlink.com 1.10,2013-08-28 07:25:00,
2013-08-28 03:40:00,74.0,73.0,29.76,NW,323,0.0,-999.0,97,-99.99,,,0.19,weatherlink.com 1.10,2013-08-28 07:40:00,
2013-08-28 03:55:00,73.9,73.0,29.75,NW,323,0.0,-999.0,97,-99.99,,,0.19,weatherlink.com 1.10,2013-08-28 07:55:00,
2013-08-28 04:10:00,73.6,73.0,29.76,NW,323,0.0,-999.0,97,-99.99,,,0.19,weatherlink.com 1.10,2013-08-28 08:10:00,
2013-08-28 04:25:00,73.4,73.0,29.76,NW,323,0.0,-999.0,97,-99.99,,,0.19,weatherlink.com 1.10,2013-08-28 08:25:00,
2013-08-28 04:40:00,73.1,72.0,29.77,NW,323,0.0,-999.0,97,-99.99,,,0.19,weatherlink.com 1.10,2013-08-28 08:40:00,
2013-08-28 04:55:00,72.7,72.0,29.77,NW,323,2.0,-999.0,97,-99.99,,,0.19,weatherlink.com 1.10,2013-08-28 08:55:00,
2013-08-28 05:10:00,73.1,72.0,29.77,North,5,4.0,-999.0,97,-99.99,,,0.19,weatherlink.com 1.10,2013-08-28 09:10:00,
2013-08-28 05:25:00,72.8,72.0,29.78,North,360,4.0,-999.0,97,-99.99,,,0.19,weatherlink.com 1.10,2013-08-28 09:25:00,
2013-08-28 05:40:00,72.6,72.0,29.79,North,360,4.0,-999.0,97,-99.99,,,0.19,weatherlink.com 1.10,2013-08-28 09:40:00,
2013-08-28 05:55:00,72.5,72.0,29.79,NNE,32,10.0,-999.0,97,-99.99,,,0.19,weatherlink.com 1.10,2013-08-28 09:55:00,
2013-08-28 06:10:00,72.2,71.0,29.79,NNE,28,3.0,-999.0,97,-99.99,,,0.19,weatherlink.com 1.10,2013-08-28 10:10:00,
2013-08-28 06:25:00,72.1,71.0,29.80,NNE,17,0.0,-999.0,97,-99.99,,,0.19,weatherlink.com 1.10,2013-08-28 10:25:00,
2013-08-28 06:40:00,72.1,71.0,29.80,NNE,19,3.0,-999.0,97,-99.99,,,0.19,weatherlink.com 1.10,2013-08-28 10:40:00,
2013-08-28 06:55:00,72.2,71.0,29.81,NNE,24,5.0,-999.0,97,-99.99,,,0.19,weatherlink.com 1.10,2013-08-28 10:55:00,
2013-08-28 07:10:00,72.2,71.0,29.82,NNE,26,0.0,-999.0,97,-99.99,,,0.19,weatherlink.com 1.10,2013-08-28 11:10:00,
2013-08-28 07:25:00,72.1,71.0,29.83,NNE,26,6.0,-999.0,97,-99.99,,,0.19,weatherlink.com 1.10,2013-08-28 11:25:00,
2013-08-28 07:40:00,71.9,71.0,29.83,NE,36,7.0,-999.0,97,-99.99,,,0.19,weatherlink.com 1.10,2013-08-28 11:40:00,
2013-08-28 07:55:00,71.9,71.0,29.83,NNE,32,5.0,-999.0,97,-99.99,,,0.19,weatherlink.com 1.10,2013-08-28 11:55:00,
2013-08-28 08:10:00,71.9,71.0,29.84,NNE,25,5.0,-999.0,97,-99.99,,,0.19,weatherlink.com 1.10,2013-08-28 12:10:00,
2013-08-28 08:25:00,72.0,71.0,29.84,NE,34,0.0,-999.0,97,-99.99,,,0.19,weatherlink.com 1.10,2013-08-28 12:25:00,
2013-08-28 08:40:00,72.2,71.0,29.84,NE,34,0.0,-999.0,97,-99.99,,,0.19,weatherlink.com 1.10,2013-08-28 12:40:00,
2013-08-28 08:55:00,72.4,72.0,29.85,NE,34,3.0,-999.0,97,-99.99,,,0.19,weatherlink.com 1.10,2013-08-28 12:55:00,
2013-08-28 09:10:00,72.5,72.0,29.85,NNE,32,8.0,-999.0,97,-99.99,,,0.19,weatherlink.com 1.10,2013-08-28 13:10:00,
2013-08-28 09:25:00,72.6,72.0,29.85,NE,35,1.0,-999.0,97,-99.99,,,0.19,weatherlink.com 1.10,2013-08-28 13:25:00,
2013-08-28 09:40:00,72.4,71.0,29.85,NE,34,4.0,-999.0,96,-99.99,,,0.19,weatherlink.com 1.10,2013-08-28 13:40:00,
2013-08-28 09:55:00,72.5,71.0,29.86,NE,55,5.0,-999.0,96,-99.99,,,0.19,weatherlink.com 1.10,2013-08-28 13:55:00,
2013-08-28 10:10:00,72.9,71.0,29.86,ENE,61,0.0,-999.0,95,-99.99,,,0.19,weatherlink.com 1.10,2013-08-28 14:10:00,
2013-08-28 10:25:00,73.1,71.0,29.86,NE,39,4.0,-999.0,94,-99.99,,,0.19,weatherlink.com 1.10,2013-08-28 14:25:00,
2013-08-28 10:40:00,73.6,72.0,29.86,NE,40,4.0,-999.0,94,-99.99,,,0.19,weatherlink.com 1.10,2013-08-28 14:40:00,
2013-08-28 10:55:00,73.8,72.0,29.87,NNE,33,3.0,-999.0,93,-99.99,,,0.19,weatherlink.com 1.10,2013-08-28 14:55:00,
2013-08-28 11:10:00,73.8,71.0,29.88,NE,51,6.0,-999.0,92,-99.99,,,0.19,weatherlink.com 1.10,2013-08-28 15:10:00,
2013-08-28 11:25:00,74.0,72.0,29.88,ENE,57,2.0,-999.0,92,-99.99,,,0.19,weatherlink.com 1.10,2013-08-28 15:25:00,
2013-08-28 11:40:00,73.9,71.0,29.89,NE,54,6.0,-999.0,91,-99.99,,,0.19,weatherlink.com 1.10,2013-08-28 15:40:00,
2013-08-28 11:55:00,74.1,71.0,29.89,ENE,57,0.0,-999.0,91,-99.99,,,0.19,weatherlink.com 1.10,2013-08-28 15:55:00,
2013-08-28 12:11:00,75.0,72.0,29.89,NE,56,0.0,-999.0,91,-99.99,,,0.19,weatherlink.com 1.10,2013-08-28 16:11:00,
2013-08-28 12:25:00,75.7,72.0,29.90,NE,53,4.0,-999.0,89,-99.99,,,0.19,weatherlink.com 1.10,2013-08-28 16:25:00,
2013-08-28 12:41:00,75.7,72.0,29.90,NNE,26,5.0,-999.0,87,-99.99,,,0.19,weatherlink.com 1.10,2013-08-28 16:41:00,
2013-08-28 12:56:00,76.8,72.0,29.90,NNE,29,6.0,-999.0,86,-99.99,,,0.19,weatherlink.com 1.10,2013-08-28 16:56:00,
2013-08-28 13:25:00,77.5,72.0,29.90,North,10,3.0,-999.0,84,-99.99,,,0.19,weatherlink.com 1.10,2013-08-28 17:25:00,
2013-08-28 13:41:00,77.5,72.0,29.91,ENE,64,5.0,-999.0,84,-99.99,,,0.19,weatherlink.com 1.10,2013-08-28 17:41:00,
2013-08-28 13:56:00,78.3,72.0,29.91,NNE,17,5.0,-999.0,82,-99.99,,,0.19,weatherlink.com 1.10,2013-08-28 17:56:00,
2013-08-28 14:10:00,78.2,72.0,29.91,NNE,13,0.0,-999.0,82,-99.99,,,0.19,weatherlink.com 1.10,2013-08-28 18:10:00,
2013-08-28 14:26:00,78.9,72.0,29.92,NNE,13,3.0,-999.0,80,-99.99,,,0.19,weatherlink.com 1.10,2013-08-28 18:26:00,
2013-08-28 14:41:00,79.1,72.0,29.91,NE,53,6.0,-999.0,79,-99.99,,,0.19,weatherlink.com 1.10,2013-08-28 18:41:00,
2013-08-28 15:11:00,81.1,73.0,29.91,NE,40,4.0,-999.0,77,-99.99,,,0.19,weatherlink.com 1.10,2013-08-28 19:11:00,
2013-08-28 15:26:00,80.8,73.0,29.91,NE,35,9.0,-999.0,77,-99.99,,,0.19,weatherlink.com 1.10,2013-08-28 19:26:00,
2013-08-28 15:41:00,80.5,72.0,29.91,NNE,19,8.0,-999.0,75,-99.99,,,0.19,weatherlink.com 1.10,2013-08-28 19:41:00,
2013-08-28 15:56:00,81.2,73.0,29.91,ENE,60,7.0,-999.0,76,-99.99,,,0.19,weatherlink.com 1.10,2013-08-28 19:56:00,
2013-08-28 16:11:00,81.5,72.0,29.91,NE,51,5.0,-999.0,72,-99.99,,,0.19,weatherlink.com 1.10,2013-08-28 20:11:00,
2013-08-28 16:26:00,81.3,73.0,29.91,NNE,32,3.0,-999.0,75,-99.99,,,0.19,weatherlink.com 1.10,2013-08-28 20:26:00,
2013-08-28 16:41:00,80.6,73.0,29.91,East,84,5.0,-999.0,77,-99.99,,,0.19,weatherlink.com 1.10,2013-08-28 20:41:00,
2013-08-28 16:56:00,81.9,72.0,29.92,East,79,3.0,-999.0,72,-99.99,,,0.19,weatherlink.com 1.10,2013-08-28 20:56:00,
2013-08-28 17:11:00,82.7,72.0,29.92,North,5,10.0,-999.0,71,-99.99,,,0.19,weatherlink.com 1.10,2013-08-28 21:11:00,
2013-08-28 17:26:00,80.7,72.0,29.92,ENE,63,0.0,-999.0,74,-99.99,,,0.19,weatherlink.com 1.10,2013-08-28 21:26:00,
2013-08-28 17:41:00,81.5,71.0,29.92,ENE,76,0.0,-999.0,71,-99.99,,,0.19,weatherlink.com 1.10,2013-08-28 21:41:00,
2013-08-28 17:56:00,82.5,72.0,29.92,ENE,76,1.0,-999.0,70,-99.99,,,0.19,weatherlink.com 1.10,2013-08-28 21:56:00,
2013-08-28 18:11:00,81.8,72.0,29.92,ENE,76,0.0,-999.0,71,-99.99,,,0.19,weatherlink.com 1.10,2013-08-28 22:11:00,
2013-08-28 18:26:00,82.2,71.0,29.92,ENE,76,0.0,-999.0,69,-99.99,,,0.19,weatherlink.com 1.10,2013-08-28 22:26:00,
2013-08-28 18:41:00,82.3,72.0,29.92,ENE,76,0.0,-999.0,70,-99.99,,,0.19,weatherlink.com 1.10,2013-08-28 22:41:00,
2013-08-28 18:56:00,82.3,71.0,29.92,ENE,76,0.0,-999.0,69,-99.99,,,0.19,weatherlink.com 1.10,2013-08-28 22:56:00,
2013-08-28 19:11:00,82.7,72.0,29.93,ENE,76,0.0,-999.0,69,-99.99,,,0.19,weatherlink.com 1.10,2013-08-28 23:11:00,
2013-08-28 19:26:00,82.6,71.0,29.93,ENE,76,0.0,-999.0,68,-99.99,,,0.19,weatherlink.com 1.10,2013-08-28 23:26:00,
2013-08-28 19:41:00,82.5,73.0,29.93,ENE,76,0.0,-999.0,72,-99.99,,,0.19,weatherlink.com 1.10,2013-08-28 23:41:00,
2013-08-28 19:56:00,81.2,73.0,29.94,ENE,76,0.0,-999.0,75,-99.99,,,0.19,weatherlink.com 1.10,2013-08-28 23:56:00,
2013-08-28 20:11:00,80.1,73.0,29.93,ENE,76,0.0,-999.0,79,-99.99,,,0.19,weatherlink.com 1.10,2013-08-29 00:11:00,
2013-08-28 20:26:00,77.9,72.0,29.93,ENE,76,0.0,-999.0,83,-99.99,,,0.19,weatherlink.com 1.10,2013-08-29 00:26:00,
2013-08-28 20:41:00,75.7,71.0,29.94,ENE,76,0.0,-999.0,85,-99.99,,,0.19,weatherlink.com 1.10,2013-08-29 00:41:00,
2013-08-28 20:56:00,73.9,70.0,29.95,ENE,76,0.0,-999.0,88,-99.99,,,0.19,weatherlink.com 1.10,2013-08-29 00:56:00,
2013-08-28 21:11:00,72.6,70.0,29.95,ENE,76,0.0,-999.0,90,-99.99,,,0.19,weatherlink.com 1.10,2013-08-29 01:11:00,
2013-08-28 21:26:00,71.8,69.0,29.96,ENE,76,0.0,-999.0,91,-99.99,,,0.19,weatherlink.com 1.10,2013-08-29 01:26:00,
2013-08-28 21:41:00,71.2,69.0,29.96,ENE,76,0.0,-999.0,92,-99.99,,,0.19,weatherlink.com 1.10,2013-08-29 01:41:00,
2013-08-28 21:56:00,71.3,70.0,29.97,WNW,294,4.0,-999.0,94,-99.99,,,0.19,weatherlink.com 1.10,2013-08-29 01:56:00,
2013-08-28 22:11:00,73.3,71.0,29.97,NW,304,3.0,-999.0,93,-99.99,,,0.19,weatherlink.com 1.10,2013-08-29 02:11:00,
2013-08-28 22:26:00,73.1,71.0,29.97,NW,307,3.0,-999.0,92,-99.99,,,0.19,weatherlink.com 1.10,2013-08-29 02:26:00,
2013-08-28 22:41:00,72.8,71.0,29.97,NW,307,3.0,-999.0,93,-99.99,,,0.19,weatherlink.com 1.10,2013-08-29 02:41:00,
2013-08-28 22:56:00,72.8,71.0,29.98,NW,307,4.0,-999.0,94,-99.99,,,0.19,weatherlink.com 1.10,2013-08-29 02:56:00,
2013-08-28 23:11:00,72.8,71.0,29.98,NW,308,0.0,-999.0,93,-99.99,,,0.19,weatherlink.com 1.10,2013-08-29 03:11:00,
2013-08-28 23:26:00,72.3,71.0,29.98,NW,308,4.0,-999.0,94,-99.99,,,0.19,weatherlink.com 1.10,2013-08-29 03:26:00,
2013-08-28 23:41:00,72.0,70.0,29.98,NW,308,3.0,-999.0,94,-99.99,,,0.19,weatherlink.com 1.10,2013-08-29 03:41:00,
2013-08-28 23:56:00,71.7,70.0,29.97,NW,308,3.0,-999.0,94,-99.99,,,0.19,weatherlink.com 1.10,2013-08-29 03:56:00,